sensor_id;sensor_type;location;lat;lon;timestamp;pressure;altitude;pressure_sealevel;temperature;humidity
73821;BME280;62150;43.582;1.456;2024-02-28T04:38:52;100672.31;;;8.19;100.00
73821;BME280;62150;43.582;1.456;2024-02-28T04:41:19;100665.19;;;8.32;100.00
73821;BME280;62150;43.582;1.456;2024-02-28T04:43:47;100652.78;;;8.55;100.00
73821;BME280;62150;43.582;1.456;2024-02-28T04:46:14;100662.84;;;8.64;100.00
73821;BME280;62150;43.582;1.456;2024-02-28T04:48:42;100659.66;;;8.53;100.00
73821;BME280;62150;43.582;1.456;2024-02-28T04:51:09;100658.38;;;8.71;100.00
73821;BME280;62150;43.582;1.456;2024-02-28T04:53:36;100658.03;;;8.86;100.00
73821;BME280;62150;43.582;1.456;2024-02-28T04:56:07;100652.19;;;8.81;100.00
73821;BME280;62150;43.582;1.456;2024-02-28T04:58:36;100664.31;;;9.08;100.00
73821;BME280;62150;43.582;1.456;2024-02-28T05:01:03;100674.09;;;8.57;100.00
73821;BME280;62150;43.582;1.456;2024-02-28T05:03:31;100680.28;;;8.47;100.00
73821;BME280;62150;43.582;1.456;2024-02-28T05:05:58;100678.41;;;8.55;100.00
73821;BME280;62150;43.582;1.456;2024-02-28T05:08:26;100678.00;;;8.72;100.00
73821;BME280;62150;43.582;1.456;2024-02-28T05:10:54;100684.66;;;8.42;100.00
73821;BME280;62150;43.582;1.456;2024-02-28T05:13:23;100683.44;;;8.60;100.00
73821;BME280;62150;43.582;1.456;2024-02-28T05:15:51;100689.91;;;8.74;100.00
73821;BME280;62150;43.582;1.456;2024-02-28T05:18:18;100677.66;;;8.50;100.00
73821;BME280;62150;43.582;1.456;2024-02-28T05:20:45;100681.84;;;8.54;100.00
73821;BME280;62150;43.582;1.456;2024-02-28T05:23:12;100687.22;;;8.81;100.00
73821;BME280;62150;43.582;1.456;2024-02-28T05:25:40;100687.50;;;8.67;100.00
73821;BME280;62150;43.582;1.456;2024-02-28T05:28:07;100691.56;;;8.77;100.00
73821;BME280;62150;43.582;1.456;2024-02-28T05:30:36;100698.47;;;8.73;100.00
73821;BME280;62150;43.582;1.456;2024-02-28T05:33:04;100691.38;;;8.85;100.00
73821;BME280;62150;43.582;1.456;2024-02-28T05:35:32;100690.13;;;8.65;100.00
73821;BME280;62150;43.582;1.456;2024-02-28T05:37:59;100692.19;;;8.50;100.00
73821;BME280;62150;43.582;1.456;2024-02-28T05:40:26;100693.31;;;8.75;100.00
73821;BME280;62150;43.582;1.456;2024-02-28T05:42:54;100690.03;;;8.68;100.00
73821;BME280;62150;43.582;1.456;2024-02-28T05:45:21;100699.13;;;8.43;100.00
73821;BME280;62150;43.582;1.456;2024-02-28T05:47:50;100711.78;;;8.51;100.00
73821;BME280;62150;43.582;1.456;2024-02-28T05:50:18;100711.09;;;8.81;100.00
73821;BME280;62150;43.582;1.456;2024-02-28T05:52:45;100704.38;;;8.77;100.00
73821;BME280;62150;43.582;1.456;2024-02-28T05:55:13;100709.19;;;8.52;100.00
73821;BME280;62150;43.582;1.456;2024-02-28T05:57:41;100702.25;;;8.16;100.00
73821;BME280;62150;43.582;1.456;2024-02-28T06:00:09;100706.97;;;8.35;100.00
73821;BME280;62150;43.582;1.456;2024-02-28T06:02:37;100712.34;;;8.65;100.00
73821;BME280;62150;43.582;1.456;2024-02-28T06:05:07;100724.59;;;8.89;100.00
73821;BME280;62150;43.582;1.456;2024-02-28T06:07:34;100726.19;;;8.56;100.00
73821;BME280;62150;43.582;1.456;2024-02-28T06:10:02;100721.19;;;8.50;100.00
73821;BME280;62150;43.582;1.456;2024-02-28T06:12:29;100721.84;;;8.60;100.00
73821;BME280;62150;43.582;1.456;2024-02-28T06:14:57;100715.09;;;8.56;100.00
73821;BME280;62150;43.582;1.456;2024-02-28T06:17:24;100729.66;;;8.54;100.00
73821;BME280;62150;43.582;1.456;2024-02-28T06:19:52;100723.31;;;8.70;100.00
73821;BME280;62150;43.582;1.456;2024-02-28T06:22:21;100730.47;;;8.56;100.00
73821;BME280;62150;43.582;1.456;2024-02-28T06:24:48;100736.75;;;8.39;100.00
73821;BME280;62150;43.582;1.456;2024-02-28T06:27:16;100733.53;;;8.71;100.00
73821;BME280;62150;43.582;1.456;2024-02-28T06:29:43;100742.78;;;8.37;100.00
73821;BME280;62150;43.582;1.456;2024-02-28T06:32:11;100722.72;;;8.16;100.00
73821;BME280;62150;43.582;1.456;2024-02-28T06:34:39;100744.97;;;8.55;100.00
73821;BME280;62150;43.582;1.456;2024-02-28T06:37:06;100742.69;;;8.42;100.00
73821;BME280;62150;43.582;1.456;2024-02-28T06:39:35;100750.66;;;8.68;100.00
73821;BME280;62150;43.582;1.456;2024-02-28T06:42:02;100745.16;;;8.46;100.00
73821;BME280;62150;43.582;1.456;2024-02-28T06:44:30;100747.09;;;8.35;100.00
73821;BME280;62150;43.582;1.456;2024-02-28T06:46:57;100746.94;;;8.83;100.00
73821;BME280;62150;43.582;1.456;2024-02-28T06:49:25;100757.13;;;8.46;100.00
73821;BME280;62150;43.582;1.456;2024-02-28T06:51:52;100758.56;;;8.16;100.00
73821;BME280;62150;43.582;1.456;2024-02-28T06:54:20;100759.19;;;8.27;100.00
73821;BME280;62150;43.582;1.456;2024-02-28T06:56:49;100771.28;;;8.19;100.00
73821;BME280;62150;43.582;1.456;2024-02-28T06:59:17;100765.88;;;8.34;100.00
73821;BME280;62150;43.582;1.456;2024-02-28T07:01:44;100770.78;;;8.46;100.00
73821;BME280;62150;43.582;1.456;2024-02-28T07:04:12;100768.97;;;8.51;100.00
73821;BME280;62150;43.582;1.456;2024-02-28T07:06:39;100769.91;;;8.47;100.00
73821;BME280;62150;43.582;1.456;2024-02-28T07:09:08;100775.78;;;8.92;100.00
73821;BME280;62150;43.582;1.456;2024-02-28T07:11:37;100776.88;;;8.39;100.00
73821;BME280;62150;43.582;1.456;2024-02-28T07:14:05;100789.75;;;8.36;100.00
73821;BME280;62150;43.582;1.456;2024-02-28T07:16:33;100786.13;;;8.46;100.00
73821;BME280;62150;43.582;1.456;2024-02-28T07:19:01;100798.06;;;8.47;100.00
73821;BME280;62150;43.582;1.456;2024-02-28T07:21:28;100806.75;;;8.82;100.00
73821;BME280;62150;43.582;1.456;2024-02-28T07:23:58;100812.13;;;8.25;100.00
73821;BME280;62150;43.582;1.456;2024-02-28T07:26:25;100801.69;;;8.37;100.00
73821;BME280;62150;43.582;1.456;2024-02-28T07:28:53;100797.59;;;8.27;100.00
73821;BME280;62150;43.582;1.456;2024-02-28T07:31:22;100799.28;;;8.28;100.00
73821;BME280;62150;43.582;1.456;2024-02-28T07:33:49;100800.47;;;8.55;100.00
73821;BME280;62150;43.582;1.456;2024-02-28T07:36:17;100809.75;;;8.60;100.00
73821;BME280;62150;43.582;1.456;2024-02-28T07:38:44;100808.47;;;8.38;100.00
73821;BME280;62150;43.582;1.456;2024-02-28T07:41:12;100814.06;;;8.58;100.00
73821;BME280;62150;43.582;1.456;2024-02-28T07:43:42;100823.91;;;8.78;100.00
73821;BME280;62150;43.582;1.456;2024-02-28T07:46:10;100816.25;;;8.33;100.00
73821;BME280;62150;43.582;1.456;2024-02-28T07:48:39;100819.25;;;8.07;100.00
73821;BME280;62150;43.582;1.456;2024-02-28T07:51:07;100821.94;;;8.49;100.00
73821;BME280;62150;43.582;1.456;2024-02-28T07:53:35;100825.13;;;8.60;100.00
73821;BME280;62150;43.582;1.456;2024-02-28T07:56:03;100832.28;;;8.43;100.00
73821;BME280;62150;43.582;1.456;2024-02-28T07:58:31;100831.69;;;8.29;100.00
73821;BME280;62150;43.582;1.456;2024-02-28T08:00:58;100830.03;;;8.26;100.00
73821;BME280;62150;43.582;1.456;2024-02-28T08:03:25;100831.75;;;8.69;100.00
73821;BME280;62150;43.582;1.456;2024-02-28T08:05:54;100835.34;;;8.62;100.00
73821;BME280;62150;43.582;1.456;2024-02-28T08:08:22;100837.78;;;8.22;100.00
73821;BME280;62150;43.582;1.456;2024-02-28T08:10:50;100837.78;;;8.22;100.00
73821;BME280;62150;43.582;1.456;2024-02-28T08:13:19;100842.31;;;8.55;100.00
73821;BME280;62150;43.582;1.456;2024-02-28T08:15:46;100841.28;;;8.64;100.00
73821;BME280;62150;43.582;1.456;2024-02-28T08:18:14;100842.41;;;8.49;100.00
73821;BME280;62150;43.582;1.456;2024-02-28T08:20:41;100840.84;;;8.42;100.00
73821;BME280;62150;43.582;1.456;2024-02-28T08:23:10;100841.66;;;8.44;100.00
73821;BME280;62150;43.582;1.456;2024-02-28T08:25:38;100836.53;;;8.44;100.00
73821;BME280;62150;43.582;1.456;2024-02-28T08:28:06;100833.44;;;8.70;100.00
73821;BME280;62150;43.582;1.456;2024-02-28T08:30:33;100833.34;;;8.76;100.00
73821;BME280;62150;43.582;1.456;2024-02-28T08:33:01;100838.75;;;9.02;100.00
73821;BME280;62150;43.582;1.456;2024-02-28T08:35:28;100853.47;;;8.51;100.00
73821;BME280;62150;43.582;1.456;2024-02-28T08:37:56;100850.81;;;8.57;100.00
73821;BME280;62150;43.582;1.456;2024-02-28T08:40:25;100857.09;;;8.84;100.00
73821;BME280;62150;43.582;1.456;2024-02-28T08:42:52;100864.31;;;8.65;100.00
73821;BME280;62150;43.582;1.456;2024-02-28T08:45:20;100870.03;;;8.77;100.00
73821;BME280;62150;43.582;1.456;2024-02-28T08:47:48;100867.94;;;8.54;100.00
73821;BME280;62150;43.582;1.456;2024-02-28T08:50:15;100867.91;;;8.55;100.00
73821;BME280;62150;43.582;1.456;2024-02-28T08:52:43;100860.72;;;8.72;100.00
73821;BME280;62150;43.582;1.456;2024-02-28T08:55:10;100856.81;;;8.55;100.00
73821;BME280;62150;43.582;1.456;2024-02-28T08:57:39;100858.97;;;8.74;100.00
73821;BME280;62150;43.582;1.456;2024-02-28T09:00:08;100858.78;;;8.85;100.00
73821;BME280;62150;43.582;1.456;2024-02-28T09:02:36;100858.34;;;8.65;100.00
73821;BME280;62150;43.582;1.456;2024-02-28T09:05:04;100852.13;;;8.75;100.00
73821;BME280;62150;43.582;1.456;2024-02-28T09:07:31;100837.28;;;8.49;100.00
73821;BME280;62150;43.582;1.456;2024-02-28T09:10:03;100838.13;;;8.93;100.00
73821;BME280;62150;43.582;1.456;2024-02-28T09:12:30;100836.63;;;8.83;100.00
73821;BME280;62150;43.582;1.456;2024-02-28T09:15:00;100839.19;;;8.83;100.00
73821;BME280;62150;43.582;1.456;2024-02-28T09:17:27;100832.16;;;8.49;100.00
73821;BME280;62150;43.582;1.456;2024-02-28T09:19:55;100842.50;;;8.88;100.00
73821;BME280;62150;43.582;1.456;2024-02-28T09:22:23;100844.09;;;8.93;100.00
73821;BME280;62150;43.582;1.456;2024-02-28T09:24:51;100848.31;;;8.96;100.00
73821;BME280;62150;43.582;1.456;2024-02-28T09:27:18;100840.78;;;9.27;100.00
73821;BME280;62150;43.582;1.456;2024-02-28T09:29:46;100836.09;;;9.07;100.00
73821;BME280;62150;43.582;1.456;2024-02-28T09:32:15;100834.22;;;9.15;100.00
73821;BME280;62150;43.582;1.456;2024-02-28T09:34:44;100822.81;;;8.90;100.00
73821;BME280;62150;43.582;1.456;2024-02-28T09:37:11;100822.31;;;8.72;100.00
73821;BME280;62150;43.582;1.456;2024-02-28T09:39:39;100807.41;;;8.91;100.00
73821;BME280;62150;43.582;1.456;2024-02-28T09:42:07;100797.66;;;9.05;100.00
73821;BME280;62150;43.582;1.456;2024-02-28T09:44:36;100798.97;;;8.86;100.00
73821;BME280;62150;43.582;1.456;2024-02-28T09:47:06;100810.09;;;8.85;100.00
73821;BME280;62150;43.582;1.456;2024-02-28T09:49:36;100800.28;;;9.04;100.00
73821;BME280;62150;43.582;1.456;2024-02-28T09:52:04;100800.00;;;8.78;100.00
73821;BME280;62150;43.582;1.456;2024-02-28T09:54:32;100820.50;;;9.16;100.00
73821;BME280;62150;43.582;1.456;2024-02-28T09:57:00;100825.13;;;9.37;100.00
73821;BME280;62150;43.582;1.456;2024-02-28T09:59:27;100814.72;;;9.45;100.00
73821;BME280;62150;43.582;1.456;2024-02-28T10:01:57;100812.56;;;9.28;100.00
73821;BME280;62150;43.582;1.456;2024-02-28T10:04:26;100810.41;;;9.46;100.00
73821;BME280;62150;43.582;1.456;2024-02-28T10:06:56;100818.25;;;9.39;100.00
73821;BME280;62150;43.582;1.456;2024-02-28T10:09:24;100819.91;;;9.78;100.00
73821;BME280;62150;43.582;1.456;2024-02-28T10:11:52;100827.34;;;9.88;100.00
73821;BME280;62150;43.582;1.456;2024-02-28T10:14:20;100833.75;;;9.70;100.00
73821;BME280;62150;43.582;1.456;2024-02-28T10:16:48;100829.72;;;9.96;100.00
73821;BME280;62150;43.582;1.456;2024-02-28T10:19:16;100848.53;;;9.96;100.00
73821;BME280;62150;43.582;1.456;2024-02-28T10:21:43;100852.28;;;10.16;100.00
73821;BME280;62150;43.582;1.456;2024-02-28T10:24:14;100859.06;;;10.20;100.00
73821;BME280;62150;43.582;1.456;2024-02-28T10:26:45;100861.00;;;10.10;100.00
73821;BME280;62150;43.582;1.456;2024-02-28T10:29:14;100853.06;;;10.21;100.00
73821;BME280;62150;43.582;1.456;2024-02-28T10:31:42;100860.75;;;10.21;100.00
73821;BME280;62150;43.582;1.456;2024-02-28T10:34:12;100864.63;;;10.03;100.00
73821;BME280;62150;43.582;1.456;2024-02-28T10:36:42;100866.03;;;10.47;100.00
73821;BME280;62150;43.582;1.456;2024-02-28T10:39:12;100859.25;;;10.75;100.00
73821;BME280;62150;43.582;1.456;2024-02-28T10:41:41;100864.50;;;10.72;100.00
73821;BME280;62150;43.582;1.456;2024-02-28T10:44:09;100846.38;;;10.46;100.00
73821;BME280;62150;43.582;1.456;2024-02-28T10:46:38;100855.44;;;10.59;100.00
73821;BME280;62150;43.582;1.456;2024-02-28T10:49:06;100847.41;;;10.71;100.00
73821;BME280;62150;43.582;1.456;2024-02-28T10:51:35;100843.69;;;10.51;100.00
73821;BME280;62150;43.582;1.456;2024-02-28T10:54:09;100841.97;;;10.81;100.00
73821;BME280;62150;43.582;1.456;2024-02-28T10:56:37;100832.66;;;10.77;100.00
73821;BME280;62150;43.582;1.456;2024-02-28T10:59:09;100826.25;;;10.62;100.00
73821;BME280;62150;43.582;1.456;2024-02-28T11:01:37;100820.06;;;10.69;100.00
73821;BME280;62150;43.582;1.456;2024-02-28T11:04:08;100821.81;;;10.96;100.00
73821;BME280;62150;43.582;1.456;2024-02-28T11:06:48;100821.31;;;10.84;100.00
73821;BME280;62150;43.582;1.456;2024-02-28T11:09:20;100830.00;;;10.80;100.00
73821;BME280;62150;43.582;1.456;2024-02-28T11:11:49;100826.13;;;10.96;100.00
73821;BME280;62150;43.582;1.456;2024-02-28T11:14:19;100817.03;;;11.12;100.00
73821;BME280;62150;43.582;1.456;2024-02-28T11:16:58;100821.69;;;11.01;100.00
73821;BME280;62150;43.582;1.456;2024-02-28T11:19:28;100837.88;;;11.32;100.00
73821;BME280;62150;43.582;1.456;2024-02-28T11:21:57;100823.00;;;11.42;100.00
73821;BME280;62150;43.582;1.456;2024-02-28T11:24:28;100822.22;;;11.11;100.00
73821;BME280;62150;43.582;1.456;2024-02-28T11:26:57;100816.66;;;11.24;100.00
73821;BME280;62150;43.582;1.456;2024-02-28T11:29:26;100813.06;;;11.30;100.00
73821;BME280;62150;43.582;1.456;2024-02-28T11:31:55;100817.84;;;11.42;100.00
73821;BME280;62150;43.582;1.456;2024-02-28T11:34:22;100806.84;;;11.63;100.00
73821;BME280;62150;43.582;1.456;2024-02-28T11:36:50;100822.75;;;11.22;100.00
73821;BME280;62150;43.582;1.456;2024-02-28T11:39:19;100816.28;;;11.36;100.00
73821;BME280;62150;43.582;1.456;2024-02-28T11:41:47;100821.59;;;11.32;100.00
73821;BME280;62150;43.582;1.456;2024-02-28T11:44:16;100814.06;;;11.26;100.00
73821;BME280;62150;43.582;1.456;2024-02-28T11:46:46;100828.09;;;11.70;100.00
73821;BME280;62150;43.582;1.456;2024-02-28T11:49:14;100822.09;;;11.43;100.00
73821;BME280;62150;43.582;1.456;2024-02-28T11:51:41;100826.00;;;11.55;100.00
73821;BME280;62150;43.582;1.456;2024-02-28T11:54:09;100824.63;;;11.71;100.00
73821;BME280;62150;43.582;1.456;2024-02-28T11:56:37;100823.72;;;11.98;100.00
73821;BME280;62150;43.582;1.456;2024-02-28T11:59:05;100814.81;;;12.08;100.00
73821;BME280;62150;43.582;1.456;2024-02-28T12:01:35;100808.88;;;11.80;100.00
73821;BME280;62150;43.582;1.456;2024-02-28T12:04:05;100828.50;;;11.56;100.00
73821;BME280;62150;43.582;1.456;2024-02-28T12:06:34;100810.50;;;12.09;100.00
73821;BME280;62150;43.582;1.456;2024-02-28T12:09:02;100810.53;;;12.07;100.00
73821;BME280;62150;43.582;1.456;2024-02-28T12:11:30;100808.75;;;12.10;100.00
73821;BME280;62150;43.582;1.456;2024-02-28T12:13:58;100801.56;;;12.18;100.00
73821;BME280;62150;43.582;1.456;2024-02-28T12:16:27;100800.84;;;12.39;100.00
73821;BME280;62150;43.582;1.456;2024-02-28T12:18:55;100802.34;;;12.68;100.00
73821;BME280;62150;43.582;1.456;2024-02-28T12:21:24;100795.72;;;12.61;100.00
73821;BME280;62150;43.582;1.456;2024-02-28T12:23:52;100790.50;;;12.62;100.00
73821;BME280;62150;43.582;1.456;2024-02-28T12:26:20;100790.41;;;12.65;100.00
73821;BME280;62150;43.582;1.456;2024-02-28T12:28:48;100816.13;;;12.67;100.00
73821;BME280;62150;43.582;1.456;2024-02-28T12:31:15;100793.91;;;12.16;100.00
73821;BME280;62150;43.582;1.456;2024-02-28T12:33:44;100788.78;;;12.63;100.00
73821;BME280;62150;43.582;1.456;2024-02-28T12:36:12;100796.75;;;12.80;100.00
73821;BME280;62150;43.582;1.456;2024-02-28T12:38:41;100776.41;;;12.94;100.00
73821;BME280;62150;43.582;1.456;2024-02-28T12:41:09;100782.78;;;13.29;100.00
73821;BME280;62150;43.582;1.456;2024-02-28T12:43:38;100780.31;;;13.26;100.00
73821;BME280;62150;43.582;1.456;2024-02-28T12:46:06;100783.19;;;12.97;100.00
73821;BME280;62150;43.582;1.456;2024-02-28T12:48:37;100767.03;;;12.70;100.00
73821;BME280;62150;43.582;1.456;2024-02-28T12:51:05;100766.88;;;12.96;100.00
73821;BME280;62150;43.582;1.456;2024-02-28T12:53:32;100766.47;;;13.07;99.29
73821;BME280;62150;43.582;1.456;2024-02-28T12:56:01;100765.44;;;13.11;99.06
73821;BME280;62150;43.582;1.456;2024-02-28T12:58:29;100769.16;;;13.04;100.00
73821;BME280;62150;43.582;1.456;2024-02-28T13:00:58;100766.88;;;13.18;97.49
73821;BME280;62150;43.582;1.456;2024-02-28T13:03:25;100754.94;;;13.37;96.95
73821;BME280;62150;43.582;1.456;2024-02-28T13:05:53;100756.19;;;13.69;97.24
73821;BME280;62150;43.582;1.456;2024-02-28T13:08:21;100758.78;;;13.69;96.22
73821;BME280;62150;43.582;1.456;2024-02-28T13:10:48;100760.91;;;13.80;96.55
73821;BME280;62150;43.582;1.456;2024-02-28T13:13:17;100765.28;;;13.58;92.92
73821;BME280;62150;43.582;1.456;2024-02-28T13:15:44;100747.53;;;13.50;93.35
73821;BME280;62150;43.582;1.456;2024-02-28T13:18:12;100749.34;;;13.68;92.79
73821;BME280;62150;43.582;1.456;2024-02-28T13:20:40;100749.16;;;13.73;92.56
73821;BME280;62150;43.582;1.456;2024-02-28T13:23:07;100745.84;;;13.69;91.15
73821;BME280;62150;43.582;1.456;2024-02-28T13:25:35;100750.88;;;13.93;90.31
73821;BME280;62150;43.582;1.456;2024-02-28T13:28:03;100744.50;;;13.81;89.51
73821;BME280;62150;43.582;1.456;2024-02-28T13:30:32;100734.16;;;14.01;86.95
73821;BME280;62150;43.582;1.456;2024-02-28T13:33:01;100735.84;;;13.82;83.22
73821;BME280;62150;43.582;1.456;2024-02-28T13:35:28;100723.28;;;14.14;85.41
73821;BME280;62150;43.582;1.456;2024-02-28T13:37:56;100726.44;;;14.20;85.35
73821;BME280;62150;43.582;1.456;2024-02-28T13:40:26;100728.38;;;14.15;82.34
73821;BME280;62150;43.582;1.456;2024-02-28T13:42:53;100730.97;;;14.34;80.25
73821;BME280;62150;43.582;1.456;2024-02-28T13:45:21;100720.97;;;14.26;78.14
73821;BME280;62150;43.582;1.456;2024-02-28T13:47:49;100733.81;;;14.48;77.54
73821;BME280;62150;43.582;1.456;2024-02-28T13:50:17;100725.28;;;14.26;75.02
73821;BME280;62150;43.582;1.456;2024-02-28T13:52:44;100734.47;;;14.33;74.68
73821;BME280;62150;43.582;1.456;2024-02-28T13:55:12;100722.34;;;14.54;72.39
73821;BME280;62150;43.582;1.456;2024-02-28T13:57:40;100716.88;;;14.79;70.47
73821;BME280;62150;43.582;1.456;2024-02-28T14:00:08;100723.84;;;14.39;74.65
73821;BME280;62150;43.582;1.456;2024-02-28T14:02:39;100719.13;;;14.49;74.76
73821;BME280;62150;43.582;1.456;2024-02-28T14:05:08;100714.97;;;14.63;72.34
73821;BME280;62150;43.582;1.456;2024-02-28T14:07:36;100720.78;;;14.68;73.53
73821;BME280;62150;43.582;1.456;2024-02-28T14:10:06;100707.81;;;14.51;65.28
73821;BME280;62150;43.582;1.456;2024-02-28T14:12:37;100727.44;;;14.55;63.09
73821;BME280;62150;43.582;1.456;2024-02-28T14:15:05;100708.63;;;14.70;62.33
73821;BME280;62150;43.582;1.456;2024-02-28T14:17:33;100720.78;;;14.68;61.40
73821;BME280;62150;43.582;1.456;2024-02-28T14:20:00;100709.84;;;15.17;57.50
73821;BME280;62150;43.582;1.456;2024-02-28T14:22:29;100715.00;;;14.99;59.54
73821;BME280;62150;43.582;1.456;2024-02-28T14:24:57;100711.63;;;14.80;55.13
73821;BME280;62150;43.582;1.456;2024-02-28T14:27:24;100709.97;;;14.96;55.57
73821;BME280;62150;43.582;1.456;2024-02-28T14:29:56;100709.19;;;14.94;58.83
73821;BME280;62150;43.582;1.456;2024-02-28T14:32:23;100698.03;;;15.11;53.07
73821;BME280;62150;43.582;1.456;2024-02-28T14:34:51;100701.00;;;15.03;50.97
73821;BME280;62150;43.582;1.456;2024-02-28T14:37:20;100689.75;;;15.22;52.39
73821;BME280;62150;43.582;1.456;2024-02-28T14:39:49;100699.69;;;14.95;49.59
73821;BME280;62150;43.582;1.456;2024-02-28T14:42:24;100704.91;;;15.12;50.34
73821;BME280;62150;43.582;1.456;2024-02-28T14:44:52;100716.16;;;15.11;50.36
73821;BME280;62150;43.582;1.456;2024-02-28T14:47:20;100704.13;;;15.10;54.94
73821;BME280;62150;43.582;1.456;2024-02-28T14:49:47;100702.00;;;15.18;52.84
73821;BME280;62150;43.582;1.456;2024-02-28T14:52:16;100703.69;;;15.19;52.17
73821;BME280;62150;43.582;1.456;2024-02-28T14:54:44;100698.91;;;14.75;57.15
73821;BME280;62150;43.582;1.456;2024-02-28T14:57:13;100701.13;;;14.83;53.15
73821;BME280;62150;43.582;1.456;2024-02-28T14:59:42;100701.34;;;14.96;50.70
73821;BME280;62150;43.582;1.456;2024-02-28T15:02:11;100694.53;;;15.12;48.30
73821;BME280;62150;43.582;1.456;2024-02-28T15:04:39;100703.38;;;15.60;49.70
73821;BME280;62150;43.582;1.456;2024-02-28T15:07:07;100700.16;;;15.37;47.65
73821;BME280;62150;43.582;1.456;2024-02-28T15:09:34;100693.47;;;15.33;47.09
73821;BME280;62150;43.582;1.456;2024-02-28T15:12:02;100688.56;;;14.93;48.61
73821;BME280;62150;43.582;1.456;2024-02-28T15:14:31;100698.72;;;15.49;50.00
73821;BME280;62150;43.582;1.456;2024-02-28T15:16:59;100691.91;;;14.78;49.14
73821;BME280;62150;43.582;1.456;2024-02-28T15:19:28;100693.16;;;15.05;51.46
73821;BME280;62150;43.582;1.456;2024-02-28T15:21:56;100694.69;;;15.09;50.31
73821;BME280;62150;43.582;1.456;2024-02-28T15:24:25;100697.38;;;14.71;46.08
73821;BME280;62150;43.582;1.456;2024-02-28T15:26:53;100689.81;;;15.03;46.67
73821;BME280;62150;43.582;1.456;2024-02-28T15:29:21;100697.25;;;14.92;47.55
73821;BME280;62150;43.582;1.456;2024-02-28T15:31:50;100707.63;;;15.09;47.44
73821;BME280;62150;43.582;1.456;2024-02-28T15:34:18;100705.06;;;14.73;51.08
73821;BME280;62150;43.582;1.456;2024-02-28T15:36:46;100699.66;;;14.78;47.40
73821;BME280;62150;43.582;1.456;2024-02-28T15:39:14;100681.75;;;15.09;47.63
73821;BME280;62150;43.582;1.456;2024-02-28T15:41:42;100690.16;;;14.78;46.62
73821;BME280;62150;43.582;1.456;2024-02-28T15:44:10;100682.50;;;15.11;46.93
73821;BME280;62150;43.582;1.456;2024-02-28T15:46:37;100677.78;;;15.36;47.92
73821;BME280;62150;43.582;1.456;2024-02-28T15:49:06;100672.69;;;14.83;52.04
73821;BME280;62150;43.582;1.456;2024-02-28T15:51:35;100667.66;;;14.80;46.60
73821;BME280;62150;43.582;1.456;2024-02-28T15:54:02;100675.88;;;14.88;47.54
73821;BME280;62150;43.582;1.456;2024-02-28T15:56:30;100681.28;;;15.01;47.50
73821;BME280;62150;43.582;1.456;2024-02-28T15:58:58;100669.53;;;14.77;47.92
73821;BME280;62150;43.582;1.456;2024-02-28T16:01:25;100673.97;;;15.09;47.75
73821;BME280;62150;43.582;1.456;2024-02-28T16:03:53;100674.44;;;15.17;47.34
73821;BME280;62150;43.582;1.456;2024-02-28T16:06:21;100662.41;;;14.99;48.50
73821;BME280;62150;43.582;1.456;2024-02-28T16:08:50;100660.53;;;14.66;46.75
73821;BME280;62150;43.582;1.456;2024-02-28T16:11:18;100657.03;;;14.67;46.35
73821;BME280;62150;43.582;1.456;2024-02-28T16:13:46;100671.06;;;14.45;46.04
73821;BME280;62150;43.582;1.456;2024-02-28T16:16:14;100666.47;;;14.68;46.83
73821;BME280;62150;43.582;1.456;2024-02-28T16:18:42;100667.53;;;14.64;47.62
73821;BME280;62150;43.582;1.456;2024-02-28T16:21:10;100663.31;;;14.81;48.48
73821;BME280;62150;43.582;1.456;2024-02-28T16:23:40;100665.41;;;14.55;48.67
73821;BME280;62150;43.582;1.456;2024-02-28T16:26:07;100671.22;;;14.78;49.04
73821;BME280;62150;43.582;1.456;2024-02-28T16:28:35;100659.19;;;14.94;50.26
73821;BME280;62150;43.582;1.456;2024-02-28T16:31:03;100667.28;;;14.88;50.49
73821;BME280;62150;43.582;1.456;2024-02-28T16:33:31;100673.69;;;14.24;49.71
73821;BME280;62150;43.582;1.456;2024-02-28T16:35:58;100672.88;;;14.43;48.36
73821;BME280;62150;43.582;1.456;2024-02-28T16:38:27;100667.66;;;14.61;49.70
73821;BME280;62150;43.582;1.456;2024-02-28T16:40:56;100664.88;;;14.09;48.25
73821;BME280;62150;43.582;1.456;2024-02-28T16:43:23;100676.91;;;14.11;48.39
73821;BME280;62150;43.582;1.456;2024-02-28T16:45:51;100663.91;;;14.31;48.35
73821;BME280;62150;43.582;1.456;2024-02-28T16:48:21;100667.31;;;14.31;49.63
73821;BME280;62150;43.582;1.456;2024-02-28T16:50:50;100670.91;;;14.10;49.43
73821;BME280;62150;43.582;1.456;2024-02-28T16:53:17;100667.81;;;14.21;49.22
73821;BME280;62150;43.582;1.456;2024-02-28T16:55:45;100662.22;;;14.30;48.71
73821;BME280;62150;43.582;1.456;2024-02-28T16:58:14;100671.44;;;14.35;51.10
73821;BME280;62150;43.582;1.456;2024-02-28T17:00:41;100668.50;;;14.05;49.81
73821;BME280;62150;43.582;1.456;2024-02-28T17:03:10;100663.47;;;14.02;49.52
73821;BME280;62150;43.582;1.456;2024-02-28T17:05:37;100674.91;;;13.78;49.42
73821;BME280;62150;43.582;1.456;2024-02-28T17:08:07;100672.81;;;13.86;51.28
73821;BME280;62150;43.582;1.456;2024-02-28T17:10:35;100675.44;;;13.66;52.08
73821;BME280;62150;43.582;1.456;2024-02-28T17:13:04;100676.88;;;13.92;51.20
73821;BME280;62150;43.582;1.456;2024-02-28T17:15:33;100681.94;;;13.74;52.10
73821;BME280;62150;43.582;1.456;2024-02-28T17:18:01;100675.75;;;13.97;53.34
73821;BME280;62150;43.582;1.456;2024-02-28T17:20:29;100683.56;;;13.77;54.62
73821;BME280;62150;43.582;1.456;2024-02-28T17:22:56;100678.91;;;13.85;55.57
73821;BME280;62150;43.582;1.456;2024-02-28T17:25:24;100677.44;;;13.59;55.79
73821;BME280;62150;43.582;1.456;2024-02-28T17:27:51;100678.84;;;14.05;58.68
73821;BME280;62150;43.582;1.456;2024-02-28T17:30:19;100679.03;;;13.62;59.16